Time;durP1;ratioP1;P1;durP2;ratioP2;P2;SDS_P1;SDS_P2;PMS_P1;PMS_P2;Temp;Humidity;BMP_temperature;BMP_pressure;BME280_temperature;BME280_humidity;BME280_pressure;Samples;Min_cycle;Max_cycle;Signal;HPM_P1;HPM_P2
2021/08/19 00:00:04;;;;;;;0.70;0.60;;;;;;;17.70;100.00;60570.97;5053845;28;20942;-68
2021/08/19 00:02:32;;;;;;;0.80;0.80;;;;;;;17.67;100.00;59571.06;5050503;28;20472;-69
2021/08/19 00:04:59;;;;;;;0.70;0.63;;;;;;;17.72;100.00;58579.81;5052986;28;20424;-68
2021/08/19 00:07:26;;;;;;;0.70;0.60;;;;;;;17.72;100.00;57915.66;5053416;28;20438;-69
2021/08/19 00:09:55;;;;;;;0.80;0.80;;;;;;;17.71;100.00;57250.63;5053704;28;20521;-68
2021/08/19 00:12:23;;;;;;;0.70;0.70;;;;;;;17.70;100.00;56585.19;5053656;28;20830;-68
2021/08/19 00:14:50;;;;;;;0.70;0.70;;;;;;;17.65;100.00;55917.00;5052951;28;20868;-68
2021/08/19 00:17:17;;;;;;;0.70;0.60;;;;;;;17.68;100.00;55256.38;5052948;28;20469;-69
2021/08/19 00:19:44;;;;;;;1.93;1.63;;;;;;;17.68;100.00;54592.41;5051935;28;20522;-68
2021/08/19 00:22:11;;;;;;;0.80;0.70;;;;;;;17.72;100.00;53933.38;5053859;28;20925;-68
2021/08/19 00:24:38;;;;;;;0.70;0.70;;;;;;;17.73;100.00;53271.06;5053484;28;21035;-68
2021/08/19 00:27:05;;;;;;;0.70;0.60;;;;;;;17.75;100.00;52277.78;5047025;28;21018;-68
2021/08/19 00:29:34;;;;;;;0.70;0.70;;;;;;;17.73;100.00;51944.44;5047593;28;20512;-67
2021/08/19 00:32:03;;;;;;;0.70;0.60;;;;;;;17.72;100.00;51612.53;5036875;28;20834;-68
2021/08/19 00:34:31;;;;;;;0.70;0.60;;;;;;;17.72;100.00;50949.72;5032036;28;20420;-68
2021/08/19 00:36:59;;;;;;;0.70;0.70;;;;;;;17.75;100.00;50621.09;5044334;28;20438;-68
2021/08/19 00:39:26;;;;;;;0.70;0.60;;;;;;;17.78;100.00;49961.09;5035949;28;20474;-68
2021/08/19 00:42:14;;;;;;;0.70;0.70;;;;;;;17.74;100.00;49625.81;5052214;28;20588;-68
2021/08/19 00:44:44;;;;;;;0.70;0.70;;;;;;;17.76;100.00;49296.81;5050579;28;20428;-69
2021/08/19 00:47:11;;;;;;;0.70;0.70;;;;;;;17.85;100.00;48973.47;5045071;28;20456;-69
2021/08/19 00:49:39;;;;;;;0.70;0.60;;;;;;;17.83;100.00;48309.31;5057103;28;20443;-68
2021/08/19 00:52:08;;;;;;;0.80;0.70;;;;;;;17.81;100.00;47976.44;5042735;28;20447;-68
2021/08/19 00:54:36;;;;;;;0.70;0.70;;;;;;;17.82;100.00;47646.19;5035787;28;20516;-69
2021/08/19 00:57:07;;;;;;;0.70;0.70;;;;;;;17.81;100.00;47314.25;5036919;28;20940;-69
2021/08/19 00:59:36;;;;;;;0.70;0.60;;;;;;;17.92;100.00;46991.63;5037152;28;20489;-69
2021/08/19 01:02:06;;;;;;;0.70;0.60;;;;;;;17.93;100.00;46992.44;5038196;28;20486;-67
2021/08/19 01:04:37;;;;;;;1.97;1.10;;;;;;;17.82;100.00;46652.59;5040197;28;20471;-69
2021/08/19 01:07:05;;;;;;;0.70;0.70;;;;;;;17.85;100.00;46655.13;5055505;28;20450;-68
2021/08/19 01:09:32;;;;;;;0.70;0.60;;;;;;;17.89;100.00;46327.03;5038940;28;20506;-68
2021/08/19 01:11:59;;;;;;;0.70;0.70;;;;;;;17.92;100.00;45998.91;5038435;28;20466;-68
2021/08/19 01:14:31;;;;;;;0.70;0.60;;;;;;;17.91;100.00;45998.09;5051518;28;20430;-68
2021/08/19 01:17:06;;;;;;;1.37;1.20;;;;;;;17.96;100.00;46002.22;5047707;28;20465;-68
2021/08/19 01:19:57;;;;;;;0.70;0.67;;;;;;;17.98;100.00;45672.88;5055840;28;20490;-69
2021/08/19 01:22:24;;;;;;;0.73;0.73;;;;;;;18.04;100.00;46008.84;5056410;28;20531;-68
2021/08/19 01:24:52;;;;;;;0.70;0.60;;;;;;;18.05;100.00;45678.19;5056525;28;20437;-68
2021/08/19 01:27:22;;;;;;;0.73;0.73;;;;;;;18.05;100.00;45678.19;5027721;28;20447;-69
2021/08/19 01:29:51;;;;;;;0.70;0.70;;;;;;;18.04;100.00;45346.38;5045595;28;20434;-69
2021/08/19 01:32:18;;;;;;;0.70;0.63;;;;;;;18.04;100.00;45346.38;5029200;28;20460;-69
2021/08/19 01:34:46;;;;;;;0.80;0.80;;;;;;;18.06;100.00;45348.41;5054972;28;20447;-68
2021/08/19 01:37:13;;;;;;;0.70;0.63;;;;;;;18.03;100.00;45345.56;5055001;28;20425;-69
2021/08/19 01:39:40;;;;;;;0.70;0.70;;;;;;;18.10;100.00;45020.25;5055026;28;20478;-68
2021/08/19 01:42:08;;;;;;;0.70;0.70;;;;;;;18.07;100.00;44686.88;5044051;28;20447;-69
2021/08/19 01:44:36;;;;;;;0.70;0.70;;;;;;;18.07;100.00;44687.25;5018398;28;20483;-69
2021/08/19 01:47:07;;;;;;;0.70;0.70;;;;;;;18.06;100.00;44355.53;5044214;28;20430;-69
2021/08/19 01:49:35;;;;;;;0.80;0.80;;;;;;;18.16;100.00;44694.09;5054410;28;20458;-69
2021/08/19 01:52:03;;;;;;;0.70;0.70;;;;;;;18.16;100.00;44694.09;5055201;28;20776;-68
2021/08/19 01:54:31;;;;;;;0.70;0.70;;;;;;;18.07;100.00;44686.88;5055672;28;20983;-68
2021/08/19 01:56:58;;;;;;;0.70;0.70;;;;;;;18.06;100.00;44686.06;5054226;28;20501;-67
2021/08/19 01:59:27;;;;;;;0.70;0.70;;;;;;;18.05;100.00;44354.34;5054927;28;20470;-67
2021/08/19 02:01:57;;;;;;;0.70;0.70;;;;;;;18.14;100.00;44692.50;5046816;28;20497;-66
2021/08/19 02:04:27;;;;;;;0.70;0.60;;;;;;;18.10;100.00;44358.34;5038536;28;20476;-68
2021/08/19 02:06:54;;;;;;;0.80;0.70;;;;;;;18.08;100.00;44025.84;5037755;28;20493;-69
2021/08/19 02:09:21;;;;;;;0.70;0.60;;;;;;;18.17;100.00;44032.59;5055499;28;20997;-68
2021/08/19 02:11:49;;;;;;;0.70;0.60;;;;;;;18.23;100.00;44699.72;5055126;28;20434;-69
2021/08/19 02:14:16;;;;;;;3.10;1.77;;;;;;;18.26;100.00;45033.19;5054481;28;20994;-68
2021/08/19 02:16:43;;;;;;;0.77;0.73;;;;;;;18.21;100.00;44367.13;5054882;28;20432;-69
2021/08/19 02:19:12;;;;;;;0.70;0.70;;;;;;;18.20;100.00;44366.31;5055580;28;20462;-70
2021/08/19 02:21:39;;;;;;;0.87;0.87;;;;;;;18.18;100.00;44364.72;5050962;28;20528;-69
2021/08/19 02:24:08;;;;;;;0.70;0.67;;;;;;;18.27;100.00;44371.91;5045178;28;20465;-69
2021/08/19 02:26:35;;;;;;;0.70;0.60;;;;;;;18.19;100.00;44365.13;5035393;28;20490;-69
2021/08/19 02:29:02;;;;;;;0.70;0.70;;;;;;;18.35;100.00;44047.25;5035262;28;21171;-69
2021/08/19 02:31:30;;;;;;;0.70;0.70;;;;;;;18.34;100.00;44046.06;5034221;28;21056;-69
2021/08/19 02:33:57;;;;;;;0.70;0.70;;;;;;;18.26;100.00;43047.34;5035163;28;20439;-69
2021/08/19 02:36:25;;;;;;;0.70;0.70;;;;;;;18.32;100.00;43382.91;5035171;28;20493;-69
2021/08/19 02:38:52;;;;;;;0.70;0.60;;;;;;;18.30;100.00;42719.56;5050516;28;20994;-68
2021/08/19 02:41:20;;;;;;;0.70;0.70;;;;;;;18.42;100.00;42728.03;5050318;28;20464;-68
2021/08/19 02:43:47;;;;;;;0.70;0.60;;;;;;;18.37;100.00;40987.38;5034863;28;20456;-68
2021/08/19 02:46:14;;;;;;;1.67;1.57;;;;;;;18.31;100.00;41065.97;5038968;28;20462;-69
2021/08/19 02:48:42;;;;;;;0.70;0.70;;;;;;;18.29;100.00;39651.91;5053895;28;20927;-69
2021/08/19 02:51:09;;;;;;;0.77;0.70;;;;;;;18.18;100.00;39734.00;5054356;28;20958;-69
2021/08/19 02:53:38;;;;;;;0.70;0.70;;;;;;;18.18;100.00;40317.63;5053715;28;20785;-69
2021/08/19 02:56:05;;;;;;;0.87;0.70;;;;;;;18.29;100.00;40072.53;5054722;28;20411;-69
2021/08/19 02:58:31;;;;;;;0.80;0.80;;;;;;;18.20;100.00;38628.25;5043629;28;20472;-69
2021/08/19 03:00:58;;;;;;;0.80;0.80;;;;;;;18.31;100.00;38955.78;5044178;28;20463;-69
2021/08/19 03:03:27;;;;;;;0.70;0.70;;;;;;;18.32;100.00;37521.50;5053435;28;20447;-68
2021/08/19 03:05:54;;;;;;;0.70;0.70;;;;;;;18.30;100.00;36382.13;5052539;28;20501;-69
2021/08/19 03:08:21;;;;;;;0.70;0.60;;;;;;;18.28;100.00;36137.97;5054351;28;20455;-69
2021/08/19 03:10:49;;;;;;;0.70;0.70;;;;;;;18.39;100.00;35223.91;5054512;28;20955;-69
2021/08/19 03:13:16;;;;;;;0.70;0.70;;;;;;;18.34;100.00;34135.63;5054488;28;20502;-67
2021/08/19 03:15:47;;;;;;;0.70;0.70;;;;;;;18.45;100.00;32615.84;5052514;28;20451;-68
2021/08/19 03:18:17;;;;;;;0.70;0.70;;;;;;;18.46;100.00;31770.75;5052902;28;20566;-68
2021/08/19 03:20:44;;;;;;;1.10;1.00;;;;;;;18.53;100.00;30125.72;5053275;28;20456;-71
2021/08/19 03:23:11;;;;;;;0.70;0.60;;;;;;;18.42;100.00;27583.47;5053954;28;20737;-69
2021/08/19 03:25:38;;;;;;;0.73;0.67;;;;;;;18.41;100.00;26968.13;5052433;28;20488;-70
2021/08/19 03:28:10;;;;;;;0.70;0.70;;;;;;;18.33;100.00;26529.50;5026533;28;20442;-68
2021/08/19 03:30:38;;;;;;;0.70;0.70;;;;;;;18.40;100.00;26391.03;5036453;28;20781;-68
2021/08/19 03:33:07;;;;;;;0.70;0.70;;;;;;;18.39;100.00;25927.47;5042964;28;20472;-68
2021/08/19 03:35:34;;;;;;;0.70;0.70;;;;;;;18.37;100.00;25895.63;5034752;28;20950;-68
2021/08/19 03:38:01;;;;;;;0.70;0.60;;;;;;;18.19;100.00;26877.41;5044951;28;21030;-68
2021/08/19 03:40:28;;;;;;;0.73;0.70;;;;;;;18.16;100.00;28128.75;5054191;28;20409;-69
2021/08/19 03:42:55;;;;;;;0.73;0.70;;;;;;;18.23;100.00;28652.31;5052534;28;20821;-68
2021/08/19 03:45:24;;;;;;;0.93;0.70;;;;;;;18.17;100.00;28957.66;5055180;28;20525;-69
2021/08/19 03:47:50;;;;;;;0.70;0.70;;;;;;;18.25;100.00;28843.88;5038899;28;20470;-68
2021/08/19 03:50:17;;;;;;;0.70;0.70;;;;;;;18.26;100.00;29490.56;5033974;28;20514;-69
2021/08/19 03:52:44;;;;;;;0.70;0.70;;;;;;;18.22;100.00;29073.91;5052800;28;20596;-68
2021/08/19 03:55:12;;;;;;;0.80;0.80;;;;;;;18.25;100.00;29384.44;5053800;28;20427;-69
2021/08/19 03:57:39;;;;;;;1.10;1.00;;;;;;;18.16;100.00;30156.97;5050939;28;20772;-68
2021/08/19 04:00:28;;;;;;;1.60;1.50;;;;;;;18.32;100.00;30078.41;5052804;28;20438;-69
2021/08/19 04:02:55;;;;;;;0.70;0.70;;;;;;;18.19;100.00;29875.44;5052152;28;20479;-69
2021/08/19 04:05:24;;;;;;;0.70;0.70;;;;;;;18.19;100.00;30974.97;5049944;28;20848;-68
2021/08/19 04:07:51;;;;;;;0.70;0.60;;;;;;;18.17;100.00;31429.66;5039926;28;20512;-69
2021/08/19 04:10:20;;;;;;;0.70;0.60;;;;;;;18.22;100.00;32019.94;5032654;28;20440;-69
2021/08/19 04:12:47;;;;;;;0.70;0.70;;;;;;;18.18;100.00;32839.47;5032791;28;20769;-69
2021/08/19 04:15:15;;;;;;;0.70;0.70;;;;;;;18.16;100.00;33389.41;5033102;28;20425;-69
2021/08/19 04:17:44;;;;;;;0.80;0.70;;;;;;;18.16;100.00;35271.25;5041418;28;20458;-69
2021/08/19 04:20:12;;;;;;;0.70;0.63;;;;;;;18.15;100.00;35456.56;5043849;28;20549;-69
2021/08/19 04:23:01;;;;;;;1.53;0.90;;;;;;;18.16;100.00;36661.72;5036236;28;20423;-69
2021/08/19 04:25:28;;;;;;;0.70;0.70;;;;;;;18.11;100.00;37262.00;5052122;28;20461;-69
2021/08/19 04:27:57;;;;;;;0.80;0.80;;;;;;;18.13;100.00;37877.47;5057329;28;20431;-68
2021/08/19 04:30:24;;;;;;;0.70;0.60;;;;;;;18.17;100.00;38334.47;5057790;28;20410;-69
2021/08/19 04:32:53;;;;;;;0.80;0.80;;;;;;;18.15;100.00;38565.00;5056232;28;20475;-68
2021/08/19 04:35:21;;;;;;;0.70;0.60;;;;;;;18.14;100.00;38479.47;5057197;28;20446;-68
2021/08/19 04:37:48;;;;;;;0.70;0.70;;;;;;;18.19;100.00;39001.47;5057246;28;20962;-68
2021/08/19 04:40:15;;;;;;;2.40;0.90;;;;;;;18.17;100.00;38690.66;5057208;28;20461;-68
2021/08/19 04:42:42;;;;;;;0.70;0.70;;;;;;;18.20;100.00;39343.00;5057071;28;20404;-69
2021/08/19 04:45:10;;;;;;;0.70;0.70;;;;;;;18.11;100.00;39331.75;5057089;28;20983;-69
2021/08/19 04:47:37;;;;;;;0.70;0.70;;;;;;;18.10;100.00;39556.00;5056944;28;20427;-69
2021/08/19 04:50:06;;;;;;;0.70;0.60;;;;;;;18.14;100.00;39534.91;5056971;28;20412;-69
2021/08/19 04:52:33;;;;;;;0.80;0.80;;;;;;;18.17;100.00;39586.47;5056985;28;20435;-69
2021/08/19 04:55:02;;;;;;;0.70;0.70;;;;;;;18.18;100.00;39894.47;5057016;28;20824;-69
2021/08/19 04:57:30;;;;;;;0.80;0.80;;;;;;;18.17;100.00;39852.44;5056952;28;20503;-68
2021/08/19 04:59:57;;;;;;;0.70;0.70;;;;;;;18.32;100.00;39643.75;5055690;28;20471;-69
2021/08/19 05:02:24;;;;;;;0.70;0.70;;;;;;;18.15;100.00;39313.59;5042421;28;20478;-69
2021/08/19 05:04:51;;;;;;;0.70;0.60;;;;;;;18.02;100.00;39893.56;5036742;28;20420;-69
2021/08/19 05:07:19;;;;;;;0.80;0.80;;;;;;;17.98;100.00;40711.31;5040157;28;20932;-69
2021/08/19 05:09:47;;;;;;;0.70;0.60;;;;;;;18.05;100.00;42369.94;5056783;28;20483;-69
2021/08/19 05:12:14;;;;;;;0.80;0.80;;;;;;;18.06;100.00;42360.38;5056798;28;20468;-69
2021/08/19 05:14:41;;;;;;;0.80;0.80;;;;;;;18.09;100.00;42357.13;5056697;28;20419;-68
2021/08/19 05:17:08;;;;;;;0.70;0.70;;;;;;;18.08;100.00;41374.69;5055626;28;20474;-68
2021/08/19 05:19:35;;;;;;;0.77;0.77;;;;;;;18.08;100.00;41379.88;5056680;28;20854;-69
2021/08/19 05:22:02;;;;;;;0.70;0.60;;;;;;;18.11;100.00;41051.47;5048117;28;20447;-69
2021/08/19 05:24:31;;;;;;;0.80;0.80;;;;;;;18.04;100.00;41245.13;5040533;28;21052;-68
2021/08/19 05:26:58;;;;;;;0.70;0.67;;;;;;;18.12;100.00;41016.06;5035342;28;20895;-69
2021/08/19 05:29:25;;;;;;;0.70;0.60;;;;;;;18.24;100.00;41260.06;5036045;28;20478;-68
2021/08/19 05:31:51;;;;;;;0.70;0.70;;;;;;;18.28;100.00;39664.13;5036465;28;20444;-68
2021/08/19 05:34:18;;;;;;;1.30;1.20;;;;;;;18.27;100.00;38214.97;5052584;28;20521;-68
2021/08/19 05:36:45;;;;;;;0.70;0.70;;;;;;;18.49;100.00;37168.47;5056412;28;20476;-68
2021/08/19 05:39:12;;;;;;;0.70;0.70;;;;;;;18.43;100.00;34192.53;5055050;28;20574;-68
2021/08/19 05:41:40;;;;;;;0.70;0.70;;;;;;;18.41;100.00;32788.41;5056093;28;20432;-69
2021/08/19 05:44:29;;;;;;;0.87;0.87;;;;;;;18.38;100.00;31931.22;5055980;28;20423;-69
2021/08/19 05:46:56;;;;;;;0.80;0.77;;;;;;;18.40;100.00;31723.38;5056311;28;20439;-69
2021/08/19 05:49:23;;;;;;;0.70;0.67;;;;;;;18.49;100.00;30185.31;5054379;28;20801;-68
2021/08/19 05:51:51;;;;;;;0.80;0.80;;;;;;;18.42;100.00;27318.38;5054421;28;20849;-69
2021/08/19 05:54:21;;;;;;;0.70;0.70;;;;;;;18.50;100.00;24888.53;5055981;28;20452;-70
2021/08/19 05:56:50;;;;;;;0.70;0.60;;;;;;;18.59;100.00;21663.50;5055882;28;20451;-69
2021/08/19 05:59:17;;;;;;;0.70;0.70;;;;;;;18.57;100.00;17533.03;5055690;28;20467;-69
2021/08/19 06:01:44;;;;;;;0.77;0.70;;;;;;;18.58;100.00;14870.47;5054600;28;20399;-69
2021/08/19 06:04:11;;;;;;;0.80;0.80;;;;;;;18.68;100.00;12252.94;5055265;28;20440;-69
2021/08/19 06:06:38;;;;;;;0.70;0.70;;;;;;;18.61;100.00;7500.78;5054142;28;20538;-70
2021/08/19 06:09:05;;;;;;;1.13;1.03;;;;;;;18.61;100.00;1730.31;5055380;28;20440;-68
2021/08/19 06:11:32;;;;;;;0.80;0.80;;;;;;;18.61;100.00;-3662.81;5055957;28;20519;-69
2021/08/19 06:14:01;;;;;;;0.80;0.77;;;;;;;18.72;100.00;-7608.81;5049611;28;20497;-68
2021/08/19 06:16:28;;;;;;;0.80;0.80;;;;;;;18.60;100.00;-12121.19;5053330;28;20800;-69
2021/08/19 06:18:57;;;;;;;0.70;0.70;;;;;;;18.59;100.00;-15202.44;5055037;28;20467;-69
2021/08/19 06:21:24;;;;;;;0.80;0.70;;;;;;;18.66;100.00;-16522.44;5055157;28;20466;-69
2021/08/19 06:23:51;;;;;;;0.70;0.70;;;;;;;18.68;100.00;-17800.47;5054867;28;20444;-68
2021/08/19 06:26:19;;;;;;;0.70;0.70;;;;;;;18.60;100.00;-19047.75;5055531;28;20527;-69
2021/08/19 06:28:46;;;;;;;0.70;0.70;;;;;;;18.46;100.00;-19957.97;5055602;28;20767;-69
2021/08/19 06:31:14;;;;;;;0.70;0.60;;;;;;;18.53;100.00;-20190.50;5054916;28;20419;-69
2021/08/19 06:33:42;;;;;;;0.70;0.70;;;;;;;18.67;100.00;-21145.56;5052866;28;20584;-70
2021/08/19 06:36:12;;;;;;;0.70;0.63;;;;;;;18.46;100.00;-21182.31;5055046;28;20394;-69
2021/08/19 06:38:38;;;;;;;0.77;0.70;;;;;;;18.46;100.00;-21182.44;5054933;28;20967;-68
2021/08/19 06:41:06;;;;;;;0.70;0.70;;;;;;;18.67;100.00;-21187.91;5053867;28;20464;-69
2021/08/19 06:43:33;;;;;;;0.70;0.70;;;;;;;18.44;100.00;-21181.88;5055196;28;20500;-69
2021/08/19 06:46:01;;;;;;;0.70;0.70;;;;;;;18.58;100.00;-21185.59;5054973;28;20824;-69
2021/08/19 06:48:29;;;;;;;0.70;0.70;;;;;;;18.52;100.00;-21183.94;5054520;28;20428;-69
2021/08/19 06:51:00;;;;;;;0.70;0.70;;;;;;;18.48;100.00;-21182.84;5054610;28;20395;-69
2021/08/19 06:53:28;;;;;;;0.70;0.60;;;;;;;18.48;100.00;-21182.97;5054668;28;20491;-69
2021/08/19 06:55:54;;;;;;;0.80;0.80;;;;;;;18.54;100.00;-21184.50;5053227;28;20432;-69
2021/08/19 06:58:21;;;;;;;0.80;0.77;;;;;;;18.56;100.00;-21185.03;5054494;28;20439;-69
2021/08/19 07:00:48;;;;;;;0.80;0.73;;;;;;;18.53;100.00;-21184.22;5054450;28;20497;-69
2021/08/19 07:03:17;;;;;;;0.70;0.70;;;;;;;18.59;100.00;-21185.84;5044902;28;20440;-69
2021/08/19 07:05:46;;;;;;;0.83;0.83;;;;;;;18.58;100.00;-21185.59;5041745;28;20447;-69
2021/08/19 07:08:15;;;;;;;0.70;0.70;;;;;;;18.61;100.00;-21186.41;5054583;28;20469;-69
2021/08/19 07:10:45;;;;;;;0.70;0.70;;;;;;;18.63;100.00;-21186.81;5054539;28;20986;-69
2021/08/19 07:13:12;;;;;;;1.13;1.03;;;;;;;18.70;100.00;-21188.88;5053339;28;20421;-69
2021/08/19 07:15:42;;;;;;;0.80;0.80;;;;;;;18.71;100.00;-21189.00;5053158;28;20533;-69
2021/08/19 07:18:09;;;;;;;0.70;0.70;;;;;;;18.86;100.00;-21192.97;5044532;28;20433;-69
2021/08/19 07:20:36;;;;;;;1.10;1.00;;;;;;;18.85;100.00;-21192.72;5053539;28;20555;-69
2021/08/19 07:23:06;;;;;;;0.80;0.70;;;;;;;18.70;100.00;-21188.88;5053102;28;20482;-70
2021/08/19 07:25:33;;;;;;;0.70;0.70;;;;;;;18.75;100.00;-21190.25;5054321;28;20431;-69
2021/08/19 07:28:00;;;;;;;0.70;0.70;;;;;;;18.94;100.00;-21195.31;5054183;28;20408;-69
2021/08/19 07:30:27;;;;;;;0.70;0.70;;;;;;;18.92;100.00;-21194.75;5052942;28;20442;-69
2021/08/19 07:32:55;;;;;;;0.70;0.60;;;;;;;19.00;100.00;-21196.94;5052522;28;20940;-68
2021/08/19 07:35:23;;;;;;;0.70;0.70;;;;;;;19.12;100.00;-21200.09;5054177;28;20412;-68
2021/08/19 07:37:52;;;;;;;0.70;0.70;;;;;;;19.31;100.00;-21205.28;5053990;28;20482;-69
2021/08/19 07:40:24;;;;;;;0.70;0.70;;;;;;;19.70;100.00;-21215.69;5052660;28;20458;-68
2021/08/19 07:42:51;;;;;;;0.70;0.70;;;;;;;19.89;100.00;-21220.63;5053523;28;20958;-68
2021/08/19 07:45:20;;;;;;;0.90;0.90;;;;;;;19.51;100.00;-21210.50;5036549;28;20828;-70
2021/08/19 07:47:48;;;;;;;0.80;0.73;;;;;;;19.53;100.00;-21211.03;5053226;28;20527;-69
2021/08/19 07:50:15;;;;;;;1.70;1.60;;;;;;;19.69;100.00;-21215.41;5053775;28;20991;-70
2021/08/19 07:52:42;;;;;;;0.80;0.80;;;;;;;19.94;100.00;-21221.97;5052997;28;20423;-70
2021/08/19 07:55:11;;;;;;;0.70;0.70;;;;;;;19.84;100.00;-21219.25;5052747;28;20398;-70
2021/08/19 07:57:45;;;;;;;0.70;0.60;;;;;;;20.05;100.00;-21224.97;5053735;28;20812;-70
2021/08/19 08:00:19;;;;;;;0.70;0.70;;;;;;;20.08;100.00;-21225.66;5053718;28;20542;-70
2021/08/19 08:02:47;;;;;;;0.70;0.60;;;;;;;20.28;100.00;-21231.25;5052023;28;20438;-69
2021/08/19 08:05:14;;;;;;;1.00;0.90;;;;;;;20.67;100.00;-21241.66;5052840;28;20442;-70
2021/08/19 08:07:41;;;;;;;2.80;2.20;;;;;;;20.56;100.00;-21238.50;5049327;28;20829;-70
2021/08/19 08:10:11;;;;;;;0.70;0.70;;;;;;;20.66;100.00;-21241.38;5041172;28;20424;-69
2021/08/19 08:12:38;;;;;;;0.80;0.70;;;;;;;20.84;100.00;-21246.00;5035644;28;20811;-69
2021/08/19 08:15:08;;;;;;;3.83;0.90;;;;;;;20.94;100.00;-21248.75;5051761;28;20429;-70
2021/08/19 08:17:37;;;;;;;0.70;0.63;;;;;;;20.48;100.00;-21236.59;5053659;28;20403;-69
2021/08/19 08:20:05;;;;;;;0.73;0.70;;;;;;;20.36;100.00;-21233.19;5052992;28;20443;-69
2021/08/19 08:22:32;;;;;;;0.90;0.90;;;;;;;20.09;100.00;-21226.06;5052248;28;20460;-69
2021/08/19 08:25:00;;;;;;;0.70;0.70;;;;;;;20.10;100.00;-21226.34;5052953;28;20431;-69
2021/08/19 08:27:27;;;;;;;0.70;0.70;;;;;;;20.67;100.00;-21241.66;5053663;28;20407;-69
2021/08/19 08:29:54;;;;;;;0.70;0.60;;;;;;;20.67;100.00;-21241.66;5053678;28;20510;-69
2021/08/19 08:32:26;;;;;;;0.80;0.70;;;;;;;21.07;100.00;-21252.16;5053741;28;20439;-69
2021/08/19 08:34:53;;;;;;;0.70;0.60;;;;;;;21.28;100.00;-21257.75;5050915;28;20429;-69
2021/08/19 08:37:23;;;;;;;0.70;0.70;;;;;;;21.31;100.00;-21258.56;5052935;28;20439;-69
2021/08/19 08:39:50;;;;;;;0.80;0.70;;;;;;;21.27;100.00;-21257.59;5053613;28;20488;-69
2021/08/19 08:42:17;;;;;;;0.80;0.70;;;;;;;21.37;100.00;-21260.22;5053195;28;20402;-70
2021/08/19 08:44:46;;;;;;;1.17;1.07;;;;;;;21.78;100.00;-21271.25;5053386;28;20463;-69
2021/08/19 08:47:16;;;;;;;0.80;0.70;;;;;;;21.55;100.00;-21265.13;5053975;28;20443;-69
2021/08/19 08:49:45;;;;;;;1.00;0.90;;;;;;;21.50;100.00;-21263.63;5051434;28;20812;-68
2021/08/19 08:52:13;;;;;;;0.70;0.60;;;;;;;21.56;100.00;-21265.38;5052037;28;20446;-68
2021/08/19 08:54:40;;;;;;;0.70;0.60;;;;;;;21.29;100.00;-21258.03;5051941;28;20992;-68
2021/08/19 08:57:06;;;;;;;0.80;0.70;;;;;;;21.50;100.00;-21263.63;5050621;28;20522;-69
2021/08/19 08:59:34;;;;;;;1.27;1.17;;;;;;;21.76;100.00;-21270.56;5053132;28;20832;-70
2021/08/19 09:02:01;;;;;;;0.80;0.80;;;;;;;21.93;100.00;-21275.19;5051979;28;21028;-68
2021/08/19 09:04:29;;;;;;;1.30;1.00;;;;;;;21.80;100.00;-21271.66;5054541;28;20406;-69
2021/08/19 09:07:03;;;;;;;0.80;0.70;;;;;;;21.93;100.00;-21275.34;5055152;28;20451;-70
2021/08/19 09:09:31;;;;;;;2.20;1.57;;;;;;;23.27;100.00;-21310.88;5057062;28;20444;-68
2021/08/19 09:12:02;;;;;;;0.70;0.63;;;;;;;23.93;100.00;-21328.41;5052659;28;20522;-69
2021/08/19 09:14:32;;;;;;;0.80;0.70;;;;;;;23.62;100.00;-21320.38;5048098;28;20423;-69
2021/08/19 09:16:59;;;;;;;0.70;0.60;;;;;;;23.49;100.00;-21316.72;5054940;28;20449;-68
2021/08/19 09:19:29;;;;;;;1.00;0.80;;;;;;;23.63;100.00;-21320.66;5056521;28;20482;-68
2021/08/19 09:22:03;;;;;;;0.90;0.83;;;;;;;23.52;100.00;-21317.66;5055119;28;20438;-69
2021/08/19 09:24:32;;;;;;;0.80;0.80;;;;;;;23.58;100.00;-21319.28;5056475;28;20451;-68
2021/08/19 09:27:09;;;;;;;0.83;0.70;;;;;;;22.14;100.00;-21280.94;5055430;28;20404;-68
2021/08/19 09:29:38;;;;;;;0.80;0.70;;;;;;;21.94;100.00;-21275.47;5054983;28;20408;-68
2021/08/19 09:32:10;;;;;;;0.70;0.57;;;;;;;21.99;100.00;-21276.84;5056427;28;20466;-68
2021/08/19 09:34:38;;;;;;;1.00;0.70;;;;;;;21.84;100.00;-21272.88;5054802;28;20447;-68
2021/08/19 09:37:11;;;;;;;0.70;0.60;;;;;;;21.03;100.00;-21251.19;5038415;28;20527;-68
2021/08/19 09:39:39;;;;;;;0.70;0.60;;;;;;;21.07;100.00;-21252.28;5056200;28;20862;-68
2021/08/19 09:42:09;;;;;;;1.00;0.90;;;;;;;21.01;100.00;-21250.66;5056130;28;20408;-68
2021/08/19 09:44:38;;;;;;;1.27;1.17;;;;;;;21.11;100.00;-21253.38;5054873;28;20436;-68
2021/08/19 09:47:26;;;;;;;0.70;0.60;;;;;;;21.28;100.00;-21257.88;5056045;28;20467;-68
2021/08/19 09:50:09;;;;;;;0.80;0.80;;;;;;;20.93;100.00;-21248.47;5055512;28;20426;-69
2021/08/19 09:53:14;;;;;;;1.20;0.87;;;;;;;20.78;100.00;-21244.38;5055222;28;20518;-68
2021/08/19 09:55:43;;;;;;;0.80;0.80;;;;;;;21.02;100.00;-21250.91;5054973;28;20435;-69
2021/08/19 09:58:09;;;;;;;0.70;0.70;;;;;;;20.95;100.00;-21249.00;5055960;28;20459;-68
2021/08/19 10:00:41;;;;;;;0.73;0.70;;;;;;;21.11;100.00;-21253.38;5056136;28;20955;-68
2021/08/19 10:03:14;;;;;;;0.70;0.60;;;;;;;20.94;100.00;-21248.75;5048965;28;20449;-68
2021/08/19 10:05:43;;;;;;;0.70;0.67;;;;;;;21.06;100.00;-21252.03;5046184;28;20517;-68
2021/08/19 10:08:13;;;;;;;0.80;0.70;;;;;;;20.86;100.00;-21246.56;5055171;28;20482;-68
2021/08/19 10:10:42;;;;;;;0.80;0.70;;;;;;;20.85;100.00;-21246.44;5054983;28;20443;-69
2021/08/19 10:13:12;;;;;;;0.83;0.83;;;;;;;20.69;100.00;-21242.19;5055440;28;20409;-68
2021/08/19 10:15:41;;;;;;;0.80;0.70;;;;;;;20.79;100.00;-21244.78;5055498;28;20903;-69
2021/08/19 10:18:13;;;;;;;0.80;0.80;;;;;;;21.07;100.00;-21252.16;5055088;28;20791;-68
2021/08/19 10:20:42;;;;;;;0.70;0.60;;;;;;;21.17;100.00;-21254.88;5054879;28;20459;-69
2021/08/19 10:23:14;;;;;;;0.80;0.70;;;;;;;21.14;100.00;-21254.19;5054999;28;20455;-68
2021/08/19 10:25:42;;;;;;;0.77;0.70;;;;;;;21.02;100.00;-21250.91;5055457;28;20387;-68
2021/08/19 10:28:15;;;;;;;0.70;0.60;;;;;;;21.58;100.00;-21265.94;5055033;28;20407;-69
2021/08/19 10:30:50;;;;;;;0.90;0.90;;;;;;;21.83;100.00;-21272.47;5055153;28;20488;-68
2021/08/19 10:33:41;;;;;;;0.73;0.70;;;;;;;22.05;100.00;-21278.31;5055073;28;20412;-69
2021/08/19 10:36:49;;;;;;;0.80;0.80;;;;;;;22.43;100.00;-21288.56;5033773;28;20864;-68
2021/08/19 10:39:31;;;;;;;0.70;0.70;;;;;;;23.14;100.00;-21307.59;5034910;28;20491;-69
2021/08/19 10:41:59;;;;;;;0.70;0.60;;;;;;;22.50;100.00;-21290.47;5035206;28;20572;-71
2021/08/19 10:44:31;;;;;;;0.70;0.60;;;;;;;22.02;100.00;-21277.66;5035042;28;20925;-68
2021/08/19 10:46:58;;;;;;;0.80;0.70;;;;;;;21.59;100.00;-21266.19;5042206;28;20432;-69
2021/08/19 10:49:39;;;;;;;1.23;1.13;;;;;;;21.38;100.00;-21260.63;5054708;28;20507;-69
2021/08/19 10:52:27;;;;;;;0.70;0.60;;;;;;;21.48;100.00;-21263.19;5054678;28;20434;-70
2021/08/19 10:55:16;;;;;;;1.63;0.80;;;;;;;21.81;100.00;-21272.06;5034534;28;20467;-69
2021/08/19 10:57:50;;;;;;;0.70;0.60;;;;;;;21.60;100.00;-21266.47;5034808;28;20470;-69
2021/08/19 11:00:35;;;;;;;0.70;0.70;;;;;;;21.66;100.00;-21267.97;5050532;28;20447;-68
2021/08/19 11:03:04;;;;;;;0.70;0.60;;;;;;;21.66;100.00;-21268.13;5050680;28;20462;-69
2021/08/19 11:05:54;;;;;;;0.80;0.80;;;;;;;21.19;100.00;-21255.56;5034164;28;20444;-69
2021/08/19 11:08:46;;;;;;;0.70;0.60;;;;;;;20.91;100.00;-21248.06;5045308;28;20471;-69
2021/08/19 11:11:29;;;;;;;0.70;0.70;;;;;;;20.76;100.00;-21243.97;5042938;28;20499;-68
2021/08/19 11:14:01;;;;;;;0.90;0.90;;;;;;;20.84;100.00;-21246.00;5045024;28;20475;-68
2021/08/19 11:16:30;;;;;;;0.70;0.70;;;;;;;20.43;100.00;-21235.22;5044521;28;20448;-69
2021/08/19 11:19:15;;;;;;;0.80;0.70;;;;;;;20.21;100.00;-21229.34;5042410;28;20457;-69
2021/08/19 11:21:47;;;;;;;0.70;0.60;;;;;;;20.47;100.00;-21236.19;5043661;28;20600;-69
2021/08/19 11:24:15;;;;;;;0.80;0.70;;;;;;;20.33;100.00;-21232.50;5051813;28;20500;-69
2021/08/19 11:27:01;;;;;;;0.70;0.60;;;;;;;20.74;100.00;-21243.56;5034500;28;20406;-68
2021/08/19 11:29:30;;;;;;;0.80;0.73;;;;;;;20.73;100.00;-21243.28;5033305;28;20399;-69
2021/08/19 11:32:05;;;;;;;0.80;0.80;;;;;;;20.73;100.00;-21243.16;5034240;28;20402;-69